createdAt,value
2022-08-25T00:01:24.215Z,5.50
2022-08-25T00:03:54.548Z,4.90
2022-08-25T00:06:21.454Z,4.40
2022-08-25T00:08:49.265Z,5.10
2022-08-25T00:11:23.631Z,5.40
2022-08-25T00:13:56.285Z,5.50
2022-08-25T00:16:23.814Z,5.80
2022-08-25T00:18:53.849Z,6.00
2022-08-25T00:21:23.262Z,4.70
2022-08-25T00:23:50.651Z,5.00
2022-08-25T00:26:18.247Z,5.20
2022-08-25T00:28:45.048Z,4.80
2022-08-25T00:31:17.723Z,5.40
2022-08-25T00:33:45.767Z,4.50
2022-08-25T00:36:13.811Z,5.00
2022-08-25T00:38:42.265Z,5.70
2022-08-25T00:41:11.742Z,4.70
2022-08-25T00:43:41.795Z,5.40
2022-08-25T00:46:10.121Z,4.60
2022-08-25T00:48:38.772Z,5.30
2022-08-25T00:51:09.452Z,4.70
2022-08-25T00:53:37.195Z,5.00
2022-08-25T00:56:04.099Z,5.10
2022-08-25T00:58:33.837Z,4.40
2022-08-25T01:01:00.880Z,4.50
2022-08-25T01:03:33.082Z,4.50
2022-08-25T01:06:04.468Z,5.60
2022-08-25T01:08:32.945Z,5.50
2022-08-25T01:11:04.389Z,5.70
2022-08-25T01:13:36.557Z,4.80
2022-08-25T01:16:03.837Z,5.40
2022-08-25T01:18:46.338Z,4.60
2022-08-25T01:21:14.139Z,5.60
2022-08-25T01:23:41.643Z,5.40
2022-08-25T01:26:14.080Z,5.70
2022-08-25T01:29:02.361Z,4.50
2022-08-25T01:31:30.407Z,6.70
2022-08-25T01:33:57.944Z,5.30
2022-08-25T01:36:26.895Z,5.70
2022-08-25T01:38:54.549Z,6.20
2022-08-25T01:41:39.894Z,5.80
2022-08-25T01:44:10.885Z,4.40
2022-08-25T01:46:43.437Z,4.80
2022-08-25T01:49:10.411Z,4.90
2022-08-25T01:51:46.633Z,4.80
2022-08-25T01:54:13.519Z,5.40
2022-08-25T01:56:40.267Z,5.30
2022-08-25T01:59:06.958Z,6.20
2022-08-25T02:01:33.983Z,5.20
2022-08-25T02:04:00.881Z,5.00
2022-08-25T02:06:32.206Z,6.00
2022-08-25T02:09:14.913Z,4.50
2022-08-25T02:11:44.043Z,5.70
2022-08-25T02:14:11.887Z,5.00
2022-08-25T02:16:41.436Z,4.10
2022-08-25T02:19:11.563Z,5.10
2022-08-25T02:21:38.914Z,6.10
2022-08-25T02:24:06.957Z,5.20
2022-08-25T02:26:34.312Z,5.00
2022-08-25T02:29:01.728Z,6.20
2022-08-25T02:31:28.642Z,5.50
2022-08-25T02:33:56.643Z,5.40
2022-08-25T02:36:24.011Z,6.40
2022-08-25T02:38:50.764Z,6.40
2022-08-25T02:41:20.383Z,5.20
2022-08-25T02:43:48.468Z,4.20
2022-08-25T02:46:19.390Z,4.60
2022-08-25T02:48:47.225Z,4.40
2022-08-25T02:51:14.738Z,4.80
2022-08-25T02:53:45.304Z,5.10
2022-08-25T02:56:13.480Z,5.90
2022-08-25T02:58:42.096Z,4.50
2022-08-25T03:01:11.493Z,5.80
2022-08-25T03:03:43.903Z,4.40
2022-08-25T03:08:39.593Z,6.10
2022-08-25T03:11:06.900Z,4.60
2022-08-25T03:13:34.719Z,4.70
2022-08-25T03:16:03.748Z,5.80
2022-08-25T03:18:31.121Z,5.10
2022-08-25T03:20:58.964Z,4.90
2022-08-25T03:23:26.227Z,5.50
2022-08-25T03:26:14.753Z,4.70
2022-08-25T03:28:41.693Z,6.50
2022-08-25T03:31:09.342Z,4.30
2022-08-25T03:33:36.327Z,6.50
2022-08-25T03:36:03.678Z,4.40
2022-08-25T03:38:30.525Z,4.40
2022-08-25T03:40:57.281Z,4.90
2022-08-25T03:43:24.104Z,5.40
2022-08-25T03:45:51.416Z,5.90
2022-08-25T03:48:18.272Z,5.70
2022-08-25T03:50:50.615Z,5.50
2022-08-25T03:53:20.053Z,4.50
2022-08-25T03:55:47.301Z,5.00
2022-08-25T03:58:14.082Z,5.20
2022-08-25T04:00:41.400Z,5.10
2022-08-25T04:03:08.055Z,5.60
2022-08-25T04:05:34.879Z,6.10
2022-08-25T04:08:01.989Z,4.90
2022-08-25T04:10:29.414Z,6.10
2022-08-25T04:12:56.094Z,5.60
2022-08-25T04:15:23.915Z,5.80
2022-08-25T04:17:55.583Z,4.60
2022-08-25T04:20:22.709Z,5.20
2022-08-25T04:22:49.381Z,4.80
2022-08-25T04:25:16.337Z,5.70
2022-08-25T04:27:42.977Z,4.90
2022-08-25T04:30:10.456Z,4.90
2022-08-25T04:32:37.177Z,6.00
2022-08-25T04:35:05.622Z,5.20
2022-08-25T04:37:32.873Z,4.80
2022-08-25T04:39:59.745Z,4.80
2022-08-25T04:42:26.706Z,5.10
2022-08-25T04:44:53.857Z,3.80
2022-08-25T04:47:20.770Z,4.40
2022-08-25T04:49:47.376Z,4.90
2022-08-25T04:52:14.697Z,4.30
2022-08-25T04:54:42.395Z,4.60
2022-08-25T04:57:09.372Z,5.00
2022-08-25T04:59:36.291Z,4.70
2022-08-25T05:02:04.683Z,4.30
2022-08-25T05:04:32.865Z,5.40
2022-08-25T05:07:00.617Z,4.30
2022-08-25T05:09:28.000Z,3.80
2022-08-25T05:11:54.895Z,3.90
2022-08-25T05:14:26.250Z,4.00
2022-08-25T05:16:54.901Z,3.90
2022-08-25T05:19:23.599Z,4.90
2022-08-25T05:21:51.029Z,4.60
2022-08-25T05:24:18.457Z,4.30
2022-08-25T05:26:45.407Z,4.20
2022-08-25T05:29:12.268Z,6.10
2022-08-25T05:31:48.315Z,4.60
2022-08-25T05:34:18.297Z,4.40
2022-08-25T05:36:45.354Z,4.40
2022-08-25T05:39:12.442Z,4.30
2022-08-25T05:41:39.304Z,4.60
2022-08-25T05:44:06.210Z,6.70
2022-08-25T05:46:33.426Z,4.50
2022-08-25T05:49:01.379Z,4.50
2022-08-25T05:51:28.426Z,4.30
2022-08-25T05:53:55.061Z,5.30
2022-08-25T05:56:21.727Z,4.70
2022-08-25T05:58:49.580Z,4.00
2022-08-25T06:01:43.445Z,4.90
2022-08-25T06:04:13.691Z,4.20
2022-08-25T06:06:40.438Z,4.70
2022-08-25T06:09:09.059Z,4.20
2022-08-25T06:11:40.436Z,4.90
2022-08-25T06:14:10.686Z,4.30
2022-08-25T06:16:38.526Z,5.20
2022-08-25T06:19:07.294Z,3.90
2022-08-25T06:21:34.072Z,3.50
2022-08-25T06:24:01.746Z,3.90
2022-08-25T06:26:28.868Z,5.30
2022-08-25T06:28:55.602Z,3.90
2022-08-25T06:31:22.434Z,3.70
2022-08-25T06:33:49.698Z,3.50
2022-08-25T06:36:17.186Z,3.70
2022-08-25T06:38:44.023Z,3.60
2022-08-25T06:41:12.250Z,3.50
2022-08-25T06:43:45.065Z,3.30
2022-08-25T06:46:20.980Z,3.60
2022-08-25T06:48:48.336Z,3.70
2022-08-25T06:51:18.425Z,4.70
2022-08-25T06:53:48.454Z,3.30
2022-08-25T06:56:16.968Z,3.20
2022-08-25T06:58:44.220Z,3.30
2022-08-25T07:01:20.185Z,3.90
2022-08-25T07:03:48.505Z,3.90
2022-08-25T07:06:18.510Z,3.90
2022-08-25T07:08:46.849Z,3.10
2022-08-25T07:11:16.422Z,3.10
2022-08-25T07:13:44.994Z,4.20
2022-08-25T07:16:12.315Z,3.50
2022-08-25T07:18:39.173Z,3.90
2022-08-25T07:21:08.862Z,3.50
2022-08-25T07:23:37.103Z,3.90
2022-08-25T07:26:35.965Z,2.90
2022-08-25T07:29:03.125Z,3.80
2022-08-25T07:31:30.750Z,3.50
2022-08-25T07:34:16.668Z,3.60
2022-08-25T07:36:44.381Z,4.20
2022-08-25T07:39:11.433Z,3.30
2022-08-25T07:41:41.328Z,5.10
2022-08-25T07:44:10.481Z,3.70
2022-08-25T07:46:38.368Z,3.50
2022-08-25T07:49:13.326Z,4.70
2022-08-25T07:52:03.631Z,3.70
2022-08-25T07:54:34.386Z,4.60
2022-08-25T07:57:03.352Z,4.30
2022-08-25T07:59:30.520Z,4.90
2022-08-25T08:01:57.490Z,4.70
2022-08-25T08:04:24.753Z,4.70
2022-08-25T08:06:51.455Z,4.40
2022-08-25T08:09:18.047Z,5.80
2022-08-25T08:11:53.664Z,5.60
2022-08-25T08:14:30.162Z,5.60
2022-08-25T08:16:56.971Z,7.00
2022-08-25T08:19:23.675Z,6.90
2022-08-25T08:21:50.265Z,4.60
2022-08-25T08:24:40.762Z,5.20
2022-08-25T08:27:07.823Z,3.80
2022-08-25T08:29:35.698Z,5.00
2022-08-25T08:32:04.033Z,4.80
2022-08-25T08:34:33.030Z,5.30
2022-08-25T08:37:00.053Z,4.10
2022-08-25T08:39:28.283Z,4.80
2022-08-25T08:42:21.622Z,5.90
2022-08-25T08:45:03.765Z,4.10
2022-08-25T08:47:52.117Z,5.30
2022-08-25T08:50:42.709Z,5.10
2022-08-25T08:53:44.253Z,4.90
2022-08-25T08:56:36.476Z,3.90
2022-08-25T08:59:12.637Z,5.30
2022-08-25T09:01:47.817Z,5.50
2022-08-25T09:05:03.848Z,6.30
2022-08-25T09:07:39.322Z,3.60
2022-08-25T09:10:10.246Z,4.10
2022-08-25T09:16:01.980Z,4.20
2022-08-25T09:19:03.953Z,5.50
2022-08-25T09:21:54.380Z,4.70
2022-08-25T09:24:41.987Z,5.90
2022-08-25T09:27:29.637Z,4.10
2022-08-25T09:29:56.616Z,4.10
2022-08-25T09:32:31.444Z,3.80
2022-08-25T09:35:01.147Z,3.90
2022-08-25T09:37:27.860Z,3.40
2022-08-25T09:39:55.202Z,3.50
2022-08-25T09:42:49.666Z,3.70
2022-08-25T09:45:32.295Z,3.50
2022-08-25T09:47:59.850Z,3.10
2022-08-25T09:50:32.530Z,3.30
2022-08-25T09:53:17.407Z,4.70
2022-08-25T09:55:59.884Z,3.60
2022-08-25T09:58:27.710Z,5.50
2022-08-25T10:01:04.881Z,4.10
2022-08-25T10:03:32.302Z,3.70
2022-08-25T10:06:13.227Z,3.70
2022-08-25T10:08:42.825Z,5.00
2022-08-25T10:11:14.768Z,3.40
2022-08-25T10:13:47.625Z,4.60
2022-08-25T10:16:35.815Z,3.70
2022-08-25T10:19:08.108Z,4.60
2022-08-25T10:21:37.511Z,4.20
2022-08-25T10:24:05.477Z,4.60
2022-08-25T10:26:50.409Z,3.90
2022-08-25T10:29:35.264Z,3.70
2022-08-25T10:32:18.134Z,4.20
2022-08-25T10:34:52.585Z,3.60
2022-08-25T10:37:41.719Z,3.30
2022-08-25T10:40:38.972Z,7.40
2022-08-25T10:43:11.599Z,3.50
2022-08-25T10:46:01.896Z,3.90
2022-08-25T10:48:37.315Z,3.60
2022-08-25T10:51:25.505Z,3.50
2022-08-25T10:54:10.664Z,4.10
2022-08-25T10:56:42.787Z,3.10
2022-08-25T10:59:12.327Z,3.60
2022-08-25T11:02:06.660Z,3.30
2022-08-25T11:04:52.305Z,3.30
2022-08-25T11:07:24.843Z,4.00
2022-08-25T11:09:57.040Z,3.90
2022-08-25T11:12:31.839Z,3.60
2022-08-25T11:15:03.395Z,3.40
2022-08-25T11:17:50.130Z,3.60
2022-08-25T11:20:40.776Z,3.20
2022-08-25T11:23:22.735Z,3.80
2022-08-25T11:25:52.945Z,3.00
2022-08-25T11:28:44.173Z,3.40
2022-08-25T11:31:11.696Z,3.20
2022-08-25T11:33:38.736Z,3.90
2022-08-25T11:36:32.294Z,3.80
2022-08-25T11:39:34.511Z,3.80
2022-08-25T11:42:19.729Z,3.20
2022-08-25T11:45:25.913Z,3.20
2022-08-25T11:48:25.428Z,3.50
2022-08-25T11:51:02.907Z,4.00
2022-08-25T11:53:42.169Z,3.70
2022-08-25T11:56:30.968Z,3.70
2022-08-25T11:58:59.383Z,4.50
2022-08-25T12:01:42.623Z,4.20
2022-08-25T12:04:37.732Z,3.70
2022-08-25T12:07:19.785Z,3.70
2022-08-25T12:09:49.360Z,6.00
2022-08-25T12:12:42.087Z,4.20
2022-08-25T12:15:23.031Z,4.10
2022-08-25T12:18:15.707Z,4.80
2022-08-25T12:20:54.695Z,4.10
2022-08-25T12:23:35.573Z,3.30
2022-08-25T12:26:10.972Z,3.80
2022-08-25T12:29:16.056Z,3.70
2022-08-25T12:32:10.896Z,3.50
2022-08-25T12:35:08.408Z,3.50
2022-08-25T12:38:04.880Z,3.80
2022-08-25T12:40:52.577Z,4.10
2022-08-25T12:43:19.659Z,4.20
2022-08-25T12:45:48.829Z,3.80
2022-08-25T12:48:27.583Z,3.90
2022-08-25T12:51:02.061Z,3.20
2022-08-25T12:53:38.433Z,3.90
2022-08-25T12:56:08.017Z,4.20
2022-08-25T12:59:02.339Z,3.60
2022-08-25T13:01:36.150Z,3.90
2022-08-25T13:04:37.781Z,3.40
2022-08-25T13:07:39.377Z,3.10
2022-08-25T13:10:27.825Z,3.90
2022-08-25T13:13:04.429Z,3.70
2022-08-25T13:15:41.238Z,3.60
2022-08-25T13:18:18.914Z,3.60
2022-08-25T13:20:48.438Z,4.00
2022-08-25T13:23:21.694Z,3.60
2022-08-25T13:25:51.659Z,3.80
2022-08-25T13:28:31.339Z,3.20
2022-08-25T13:31:05.013Z,4.70
2022-08-25T13:33:33.601Z,4.60
2022-08-25T13:36:22.561Z,3.90
2022-08-25T13:38:49.572Z,5.10
2022-08-25T13:41:20.754Z,3.50
2022-08-25T13:43:47.420Z,4.00
2022-08-25T13:46:18.866Z,3.20
2022-08-25T13:48:49.508Z,3.80
2022-08-25T13:51:21.919Z,4.10
2022-08-25T13:54:00.669Z,3.60
2022-08-25T13:56:40.051Z,3.00
2022-08-25T13:59:25.164Z,3.40
2022-08-25T14:01:54.604Z,3.90
2022-08-25T14:04:31.108Z,3.60
2022-08-25T14:07:08.497Z,4.10
2022-08-25T14:09:51.576Z,3.70
2022-08-25T14:12:42.014Z,3.50
2022-08-25T14:15:17.304Z,3.30
2022-08-25T14:17:48.344Z,3.90
2022-08-25T14:20:26.653Z,3.80
2022-08-25T14:22:58.104Z,2.90
2022-08-25T14:25:27.268Z,3.30
2022-08-25T14:28:08.532Z,3.50
2022-08-25T14:30:43.347Z,3.60
2022-08-25T14:33:13.733Z,3.50
2022-08-25T14:35:45.470Z,3.70
2022-08-25T14:38:15.176Z,3.20
2022-08-25T14:40:41.905Z,3.90
2022-08-25T14:43:09.526Z,3.30
2022-08-25T14:45:40.126Z,3.60
2022-08-25T14:48:12.519Z,3.60
2022-08-25T14:50:41.001Z,3.80
2022-08-25T14:53:11.004Z,3.20
2022-08-25T14:55:38.282Z,3.20
2022-08-25T14:58:07.263Z,3.40
2022-08-25T15:00:44.735Z,3.50
2022-08-25T15:03:14.859Z,4.70
2022-08-25T15:05:42.021Z,4.00
2022-08-25T15:08:32.938Z,4.00
2022-08-25T15:11:00.330Z,3.60
2022-08-25T15:13:26.919Z,3.30
2022-08-25T15:15:55.323Z,4.20
2022-08-25T15:18:25.238Z,3.50
2022-08-25T15:20:51.810Z,3.00
2022-08-25T15:23:18.582Z,3.70
2022-08-25T15:25:48.364Z,3.60
2022-08-25T15:28:17.414Z,3.80
2022-08-25T15:30:45.681Z,3.70
2022-08-25T15:33:13.932Z,3.60
2022-08-25T15:35:40.950Z,3.50
2022-08-25T15:38:07.774Z,4.60
2022-08-25T15:40:36.899Z,3.80
2022-08-25T15:43:03.545Z,2.90
2022-08-25T15:45:31.395Z,3.50
2022-08-25T15:47:58.043Z,3.70
2022-08-25T15:50:26.378Z,3.60
2022-08-25T15:52:53.329Z,4.00
2022-08-25T15:55:20.593Z,3.70
2022-08-25T15:57:49.570Z,3.60
2022-08-25T16:00:17.622Z,4.40
2022-08-25T16:02:44.749Z,3.90
2022-08-25T16:05:12.589Z,4.90
2022-08-25T16:07:40.541Z,4.20
2022-08-25T16:10:07.561Z,3.80
2022-08-25T16:12:34.061Z,5.30
2022-08-25T16:15:01.196Z,4.40
2022-08-25T16:17:27.784Z,4.20
2022-08-25T16:19:54.395Z,3.90
2022-08-25T16:22:20.969Z,4.10
2022-08-25T16:24:47.601Z,3.20
2022-08-25T16:27:14.437Z,3.70
2022-08-25T16:29:44.087Z,3.60
2022-08-25T16:32:13.570Z,4.00
2022-08-25T16:34:41.352Z,4.40
2022-08-25T16:37:08.082Z,4.50
2022-08-25T16:39:34.697Z,5.20
2022-08-25T16:42:01.297Z,3.40
2022-08-25T16:44:28.001Z,5.70
2022-08-25T16:46:54.819Z,5.30
2022-08-25T16:49:24.190Z,4.80
2022-08-25T16:51:57.584Z,4.40
2022-08-25T16:54:45.127Z,4.50
2022-08-25T16:57:12.908Z,4.10
2022-08-25T16:59:41.883Z,4.10
2022-08-25T17:02:09.278Z,4.40
2022-08-25T17:04:36.665Z,4.70
2022-08-25T17:07:04.304Z,3.90
2022-08-25T17:09:31.901Z,4.40
2022-08-25T17:11:58.505Z,5.50
2022-08-25T17:14:25.566Z,4.90
2022-08-25T17:16:54.509Z,4.80
2022-08-25T17:19:23.637Z,5.30
2022-08-25T17:21:53.082Z,5.30
2022-08-25T17:24:19.775Z,5.50
2022-08-25T17:26:49.279Z,5.60
2022-08-25T17:29:17.189Z,5.10
2022-08-25T17:31:45.493Z,5.40
2022-08-25T17:34:16.418Z,5.10
2022-08-25T17:36:43.476Z,5.30
2022-08-25T17:39:12.839Z,4.40
2022-08-25T17:41:42.522Z,5.00
2022-08-25T17:44:09.147Z,6.10
2022-08-25T17:46:36.929Z,5.10
2022-08-25T17:49:04.364Z,5.70
2022-08-25T17:51:31.850Z,4.80
2022-08-25T17:53:58.822Z,4.60
2022-08-25T17:56:27.253Z,4.80
2022-08-25T17:58:55.611Z,4.60
2022-08-25T18:01:25.864Z,4.60
2022-08-25T18:03:54.333Z,4.90
2022-08-25T18:06:24.240Z,4.40
2022-08-25T18:08:56.329Z,5.20
2022-08-25T18:11:25.985Z,4.80
2022-08-25T18:13:54.537Z,5.10
2022-08-25T18:16:23.474Z,4.80
2022-08-25T18:18:51.843Z,4.90
2022-08-25T18:21:21.393Z,5.40
2022-08-25T18:23:49.269Z,5.90
2022-08-25T18:26:16.566Z,5.70
2022-08-25T18:28:43.960Z,5.70
2022-08-25T18:31:12.376Z,6.30
2022-08-25T18:33:43.949Z,5.70
2022-08-25T18:36:12.147Z,5.50
2022-08-25T18:38:59.580Z,5.70
2022-08-25T18:41:32.399Z,5.50
2022-08-25T18:43:59.181Z,5.30
2022-08-25T18:46:26.084Z,4.50
2022-08-25T18:48:53.608Z,5.00
2022-08-25T18:51:22.821Z,5.40
2022-08-25T18:53:54.472Z,5.20
2022-08-25T18:56:26.544Z,6.10
2022-08-25T18:58:53.373Z,5.90
2022-08-25T19:01:20.422Z,5.20
2022-08-25T19:03:51.483Z,5.60
2022-08-25T19:06:21.665Z,5.30
2022-08-25T19:08:48.469Z,5.20
2022-08-25T19:11:16.704Z,4.70
2022-08-25T19:13:44.331Z,6.20
2022-08-25T19:16:20.358Z,6.00
2022-08-25T19:18:48.364Z,5.10
2022-08-25T19:21:15.282Z,5.40
2022-08-25T19:23:42.114Z,6.10
2022-08-25T19:26:16.926Z,4.90
2022-08-25T19:28:48.888Z,5.30
2022-08-25T19:31:21.677Z,5.60
2022-08-25T19:33:51.019Z,5.00
2022-08-25T19:36:23.078Z,4.80
2022-08-25T19:38:51.926Z,5.10
2022-08-25T19:41:21.620Z,4.70
2022-08-25T19:43:55.987Z,5.10
2022-08-25T19:46:33.336Z,5.00
2022-08-25T19:49:19.217Z,4.90
2022-08-25T19:51:51.053Z,4.70
2022-08-25T19:54:27.775Z,6.50
2022-08-25T19:56:55.676Z,5.40
2022-08-25T19:59:40.573Z,4.40
2022-08-25T20:02:19.707Z,5.60
2022-08-25T20:04:49.730Z,5.10
2022-08-25T20:07:22.146Z,5.20
2022-08-25T20:09:52.311Z,5.20
2022-08-25T20:12:19.858Z,5.30
2022-08-25T20:14:47.876Z,4.00
2022-08-25T20:17:23.627Z,6.10
2022-08-25T20:19:54.252Z,5.60
2022-08-25T20:22:26.361Z,5.90
2022-08-25T20:24:59.343Z,5.60
2022-08-25T20:27:32.604Z,5.00
2022-08-25T20:30:02.550Z,5.80
2022-08-25T20:32:31.939Z,5.00
2022-08-25T20:34:59.963Z,4.90
2022-08-25T20:37:26.728Z,6.10
2022-08-25T20:39:54.385Z,6.00
2022-08-25T20:42:21.168Z,6.30
2022-08-25T20:44:47.986Z,4.70
2022-08-25T20:47:14.922Z,5.60
2022-08-25T20:49:44.363Z,5.10
2022-08-25T20:52:11.442Z,4.50
2022-08-25T20:54:38.685Z,5.60
2022-08-25T20:57:05.685Z,5.40
2022-08-25T20:59:35.126Z,5.60
2022-08-25T21:02:02.264Z,4.80
2022-08-25T21:04:30.485Z,4.40
2022-08-25T21:07:01.536Z,4.80
2022-08-25T21:09:29.474Z,5.30
2022-08-25T21:11:57.094Z,4.70
2022-08-25T21:14:25.248Z,4.90
2022-08-25T21:16:54.074Z,4.90
2022-08-25T21:19:26.884Z,5.60
2022-08-25T21:21:59.981Z,6.70
2022-08-25T21:24:27.761Z,5.20
2022-08-25T21:26:57.114Z,7.60
2022-08-25T21:29:25.947Z,7.80
2022-08-25T21:31:58.764Z,11.90
2022-08-25T21:34:28.821Z,10.70
2022-08-25T21:36:59.287Z,8.70
2022-08-25T21:39:29.099Z,6.60
2022-08-25T21:41:57.943Z,4.80
2022-08-25T21:44:27.835Z,5.30
2022-08-25T21:46:55.473Z,6.10
2022-08-25T21:49:25.153Z,5.60
2022-08-25T21:52:00.439Z,7.60
2022-08-25T21:54:28.783Z,7.00
2022-08-25T21:56:59.375Z,6.40
2022-08-25T21:59:29.097Z,5.30
2022-08-25T22:02:07.949Z,6.30
2022-08-25T22:04:37.896Z,4.50
2022-08-25T22:07:07.399Z,4.80
2022-08-25T22:09:34.949Z,4.60
2022-08-25T22:12:01.678Z,5.80
2022-08-25T22:14:28.581Z,5.50
2022-08-25T22:16:55.393Z,6.00
2022-08-25T22:19:22.981Z,4.80
2022-08-25T22:21:50.850Z,4.50
2022-08-25T22:24:19.243Z,5.20
2022-08-25T22:26:47.432Z,4.70
2022-08-25T22:29:16.232Z,5.40
2022-08-25T22:31:54.108Z,4.90
2022-08-25T22:34:30.749Z,4.30
2022-08-25T22:39:26.931Z,5.00
2022-08-25T22:41:53.607Z,4.10
2022-08-25T22:44:20.121Z,4.60
2022-08-25T22:46:46.627Z,4.20
2022-08-25T22:49:13.343Z,5.20
2022-08-25T22:51:41.001Z,6.20
2022-08-25T22:54:09.575Z,5.20
2022-08-25T22:56:36.769Z,4.10
2022-08-25T22:59:06.748Z,4.50
2022-08-25T23:01:33.753Z,5.50
2022-08-25T23:04:01.449Z,4.80
2022-08-25T23:06:29.165Z,5.10
2022-08-25T23:08:56.297Z,4.50
2022-08-25T23:11:24.155Z,6.10
2022-08-25T23:13:54.510Z,4.40
2022-08-25T23:16:22.897Z,4.70
2022-08-25T23:18:49.599Z,4.70
2022-08-25T23:21:38.221Z,4.20
2022-08-25T23:24:11.087Z,4.40
2022-08-25T23:26:42.704Z,4.50
2022-08-25T23:29:17.524Z,4.30
2022-08-25T23:31:45.857Z,4.20
2022-08-25T23:34:13.906Z,4.40
2022-08-25T23:36:40.888Z,5.00
2022-08-25T23:39:08.970Z,4.90
2022-08-25T23:41:36.143Z,4.60
2022-08-25T23:44:04.786Z,5.10
2022-08-25T23:46:31.619Z,4.30
2022-08-25T23:48:58.795Z,3.90
2022-08-25T23:51:37.208Z,4.20
2022-08-25T23:54:09.549Z,5.10
2022-08-25T23:56:42.225Z,4.90
2022-08-25T23:59:12.628Z,4.70
